Observation data for O'Donnell on 08/06/2020      Previous  Date       Current Mesonet Observations  Soil Data  Daily Summary Page  Observations in Plain Language
KOES 060500Z 18006KT 29/11 A2999 RMK A01 T02910109  RH  034%=      5-min Rain = 0
KOES 060505Z 18006KT 29/11 A2999 RMK A01 T02900109  RH  034%=      5-min Rain = 0
KOES 060510Z 19006KT 29/11 A2999 RMK A01 T02870110  RH  034%=      5-min Rain = 0
KOES 060515Z 18006KT 29/11 A30 RMK A01 T02860110  RH  035%=      5-min Rain = 0
KOES 060520Z 18005KT 28/11 A30 RMK A01 T02840111  RH  035%=      5-min Rain = 0
KOES 060525Z 18006KT 28/11 A2999 RMK A01 T02830111  RH  035%=      5-min Rain = 0
KOES 060530Z 18006KT 28/11 A2999 RMK A01 T02830111  RH  036%=      5-min Rain = 0
KOES 060535Z 18008KT 28/11 A2999 RMK A01 T02840110  RH  035%=      5-min Rain = 0
KOES 060540Z 19009KT 29/11 A2999 RMK A01 T02850110  RH  035%=      5-min Rain = 0
KOES 060545Z 19009KT 29/11 A2999 RMK A01 T02860110  RH  035%=      5-min Rain = 0
KOES 060550Z 19008KT 29/11 A2999 RMK A01 T02860111  RH  035%=      5-min Rain = 0
KOES 060555Z 19009KT 29/11 A2999 RMK A01 T02860112  RH  035%=      5-min Rain = 0
KOES 060600Z 20011KT 29/11 A2999 RMK A01 T02870112  RH  035%=      5-min Rain = 0
KOES 060605Z 19011KT 29/11 A2998 RMK A01 T02890114  RH  035%=      5-min Rain = 0
KOES 060610Z 19010KT 29/11 A2998 RMK A01 T02900114  RH  035%=      5-min Rain = 0
KOES 060615Z 19009KT 29/12 A2998 RMK A01 T02880115  RH  036%=      5-min Rain = 0
KOES 060620Z 19009KT 29/12 A2998 RMK A01 T02870116  RH  036%=      5-min Rain = 0
KOES 060625Z 18009KT 29/12 A2998 RMK A01 T02860116  RH  036%=      5-min Rain = 0
KOES 060630Z 18009KT 29/12 A2998 RMK A01 T02850117  RH  037%=      5-min Rain = 0
KOES 060635Z 18010KT 29/12 A2998 RMK A01 T02850118  RH  037%=      5-min Rain = 0
KOES 060640Z 19010KT 29/12 A2998 RMK A01 T02850119  RH  037%=      5-min Rain = 0
KOES 060645Z 19010KT 29/12 A2998 RMK A01 T02850120  RH  037%=      5-min Rain = 0
KOES 060650Z 19010KT 28/12 A2999 RMK A01 T02840120  RH  038%=      5-min Rain = 0
KOES 060655Z 19011KT 28/12 A2999 RMK A01 T02840122  RH  038%=      5-min Rain = 0
KOES 060700Z 19010G15KT 28/12 A2999 RMK A01 T02830123  RH  039%=      5-min Rain = 0
KOES 060705Z 18011KT 28/12 A2998 RMK A01 T02820124  RH  039%=      5-min Rain = 0
KOES 060710Z 18011KT 28/13 A2998 RMK A01 T02830125  RH  039%=      5-min Rain = 0
KOES 060715Z 18011KT 28/13 A2999 RMK A01 T02820126  RH  040%=      5-min Rain = 0
KOES 060720Z 18010KT 28/13 A2999 RMK A01 T02820127  RH  040%=      5-min Rain = 0
KOES 060725Z 19011KT 28/13 A2999 RMK A01 T02810128  RH  040%=      5-min Rain = 0
KOES 060730Z 19010KT 28/13 A2999 RMK A01 T02810129  RH  041%=      5-min Rain = 0
KOES 060735Z 18010KT 28/13 A2999 RMK A01 T02800130  RH  041%=      5-min Rain = 0
KOES 060740Z 18011KT 28/13 A2999 RMK A01 T02790131  RH  042%=      5-min Rain = 0
KOES 060745Z 18011KT 28/13 A2999 RMK A01 T02780131  RH  042%=      5-min Rain = 0
KOES 060750Z 18010KT 28/13 A2999 RMK A01 T02770132  RH  042%=      5-min Rain = 0
KOES 060755Z 19009KT 28/13 A2999 RMK A01 T02750133  RH  043%=      5-min Rain = 0
KOES 060800Z 19009KT 27/13 A2999 RMK A01 T02740133  RH  043%=      5-min Rain = 0
KOES 060805Z 18008KT 27/13 A2999 RMK A01 T02730133  RH  044%=      5-min Rain = 0
KOES 060810Z 18008G13KT 27/13 A2999 RMK A01 T02720134  RH  044%=      5-min Rain = 0
KOES 060815Z 18007KT 27/13 A2999 RMK A01 T02700134  RH  045%=      5-min Rain = 0
KOES 060820Z 18007KT 27/13 A2999 RMK A01 T02680134  RH  046%=      5-min Rain = 0
KOES 060825Z 18007KT 27/13 A2999 RMK A01 T02660134  RH  046%=      5-min Rain = 0
KOES 060830Z 19008KT 27/13 A2999 RMK A01 T02660134  RH  046%=      5-min Rain = 0
KOES 060835Z 19008KT 27/14 A2999 RMK A01 T02650135  RH  046%=      5-min Rain = 0
KOES 060840Z 19008KT 26/14 A2999 RMK A01 T02640135  RH  047%=      5-min Rain = 0
KOES 060845Z 18008KT 26/14 A2999 RMK A01 T02640135  RH  047%=      5-min Rain = 0
KOES 060850Z 18007KT 26/14 A2999 RMK A01 T02630135  RH  047%=      5-min Rain = 0
KOES 060855Z 19008KT 26/14 A2999 RMK A01 T02620136  RH  047%=      5-min Rain = 0
KOES 060900Z 18008KT 26/14 A30 RMK A01 T02620136  RH  048%=      5-min Rain = 0
KOES 060905Z 18008KT 26/14 A30 RMK A01 T02620136  RH  048%=      5-min Rain = 0
KOES 060910Z 18008KT 26/14 A30 RMK A01 T02600136  RH  048%=      5-min Rain = 0
KOES 060915Z 17006KT 26/14 A30 RMK A01 T02590137  RH  049%=      5-min Rain = 0
KOES 060920Z 16007KT 26/14 A2999 RMK A01 T02580137  RH  049%=      5-min Rain = 0
KOES 060925Z 16007KT 26/14 A2999 RMK A01 T02560137  RH  050%=      5-min Rain = 0
KOES 060930Z 17007KT 26/14 A2999 RMK A01 T02550137  RH  050%=      5-min Rain = 0
KOES 060935Z 17008KT 26/14 A2999 RMK A01 T02550137  RH  050%=      5-min Rain = 0
KOES 060940Z 17008KT 25/14 A2999 RMK A01 T02540138  RH  050%=      5-min Rain = 0
KOES 060945Z 17008KT 25/14 A2999 RMK A01 T02540138  RH  051%=      5-min Rain = 0
KOES 060950Z 17008KT 25/14 A2999 RMK A01 T02540138  RH  051%=      5-min Rain = 0
KOES 060955Z 17008G13KT 25/14 A2999 RMK A01 T02540137  RH  050%=      5-min Rain = 0
KOES 061000Z 17008KT 25/14 A2999 RMK A01 T02530138  RH  051%=      5-min Rain = 0
KOES 061005Z 17008KT 25/14 A2999 RMK A01 T02530138  RH  051%=      5-min Rain = 0
KOES 061010Z 18010KT 25/14 A2999 RMK A01 T02530137  RH  051%=      5-min Rain = 0
KOES 061015Z 18009KT 25/14 A2999 RMK A01 T02530138  RH  051%=      5-min Rain = 0
KOES 061020Z 18009KT 25/14 A2999 RMK A01 T02520138  RH  051%=      5-min Rain = 0
KOES 061025Z 18009KT 25/14 A2999 RMK A01 T02530138  RH  051%=      5-min Rain = 0
KOES 061030Z 19010KT 25/14 A2999 RMK A01 T02530138  RH  051%=      5-min Rain = 0
KOES 061035Z 19008KT 25/14 A30 RMK A01 T02520139  RH  051%=      5-min Rain = 0
KOES 061040Z 18008G13KT 25/14 A30 RMK A01 T02510139  RH  052%=      5-min Rain = 0
KOES 061045Z 18008KT 25/14 A30 RMK A01 T02510139  RH  052%=      5-min Rain = 0
KOES 061050Z 18009KT 25/14 A30 RMK A01 T02510139  RH  052%=      5-min Rain = 0
KOES 061055Z 18008KT 25/14 A30 RMK A01 T02510140  RH  052%=      5-min Rain = 0
KOES 061100Z 17008KT 25/14 A30 RMK A01 T02500140  RH  053%=      5-min Rain = 0
KOES 061105Z 17007KT 25/14 A30 RMK A01 T02490140  RH  053%=      5-min Rain = 0
KOES 061110Z 18008KT 25/14 A30 RMK A01 T02490141  RH  053%=      5-min Rain = 0
KOES 061115Z 18008KT 25/14 A30 RMK A01 T02480141  RH  054%=      5-min Rain = 0
KOES 061120Z 18008KT 25/14 A30 RMK A01 T02470142  RH  054%=      5-min Rain = 0
KOES 061125Z 19008KT 25/14 A3001 RMK A01 T02470142  RH  054%=      5-min Rain = 0
KOES 061130Z 19007KT 25/14 A3001 RMK A01 T02460142  RH  055%=      5-min Rain = 0
KOES 061135Z 19009KT 25/14 A3001 RMK A01 T02460143  RH  055%=      5-min Rain = 0
KOES 061140Z 19008KT 25/14 A3001 RMK A01 T02450143  RH  055%=      5-min Rain = 0
KOES 061145Z 19007KT 24/14 A3002 RMK A01 T02440144  RH  056%=      5-min Rain = 0
KOES 061150Z 18007KT 24/15 A3001 RMK A01 T02430145  RH  057%=      5-min Rain = 0
KOES 061155Z 17007KT 24/15 A3001 RMK A01 T02430145  RH  057%=      5-min Rain = 0
KOES 061200Z 18007KT 24/15 A3002 RMK A01 T02430145  RH  057%=      5-min Rain = 0
KOES 061205Z 18006KT 24/15 A3002 RMK A01 T02430146  RH  057%=      5-min Rain = 0
KOES 061210Z 18007KT 24/15 A3002 RMK A01 T02420146  RH  058%=      5-min Rain = 0
KOES 061215Z 18007KT 24/15 A3002 RMK A01 T02410147  RH  058%=      5-min Rain = 0
KOES 061220Z 17008KT 24/15 A3002 RMK A01 T02420147  RH  058%=      5-min Rain = 0
KOES 061225Z 18007KT 24/15 A3002 RMK A01 T02410148  RH  058%=      5-min Rain = 0
KOES 061230Z 18009KT 24/15 A3002 RMK A01 T02410148  RH  059%=      5-min Rain = 0
KOES 061235Z 18008KT 24/15 A3002 RMK A01 T02410149  RH  059%=      5-min Rain = 0
KOES 061240Z 18010KT 24/15 A3002 RMK A01 T02410149  RH  059%=      5-min Rain = 0
KOES 061245Z 18009KT 24/15 A3002 RMK A01 T02410150  RH  059%=      5-min Rain = 0
KOES 061250Z 19009KT 24/15 A3002 RMK A01 T02420150  RH  059%=      5-min Rain = 0
KOES 061255Z 19008KT 24/15 A3002 RMK A01 T02420151  RH  060%=      5-min Rain = 0
KOES 061300Z 19008KT 24/15 A3003 RMK A01 T02440152  RH  059%=      5-min Rain = 0
KOES 061305Z 19009KT 25/15 A3003 RMK A01 T02450153  RH  059%=      5-min Rain = 0
KOES 061310Z 18009KT 25/15 A3003 RMK A01 T02460154  RH  059%=      5-min Rain = 0
KOES 061315Z 19010KT 25/15 A3003 RMK A01 T02460154  RH  059%=      5-min Rain = 0
KOES 061320Z 18009G15KT 25/15 A3002 RMK A01 T02450154  RH  059%=      5-min Rain = 0
KOES 061325Z 18009KT 25/16 A3002 RMK A01 T02480155  RH  059%=      5-min Rain = 0
KOES 061330Z 18008KT 25/16 A3002 RMK A01 T02490156  RH  059%=      5-min Rain = 0
KOES 061335Z 18008KT 25/16 A3002 RMK A01 T02500156  RH  059%=      5-min Rain = 0
KOES 061340Z 18008KT 25/16 A3002 RMK A01 T02520157  RH  058%=      5-min Rain = 0
KOES 061345Z 18009KT 25/16 A3003 RMK A01 T02520157  RH  058%=      5-min Rain = 0
KOES 061350Z 19012KT 25/16 A3003 RMK A01 T02530157  RH  058%=      5-min Rain = 0
KOES 061355Z 18010G15KT 26/16 A3003 RMK A01 T02550158  RH  058%=      5-min Rain = 0
KOES 061400Z 19011KT 26/16 A3003 RMK A01 T02570158  RH  057%=      5-min Rain = 0
KOES 061405Z 18013KT 26/16 A3003 RMK A01 T02580158  RH  057%=      5-min Rain = 0
KOES 061410Z 18012G17KT 26/16 A3003 RMK A01 T02590159  RH  056%=      5-min Rain = 0
KOES 061415Z 18012KT 26/16 A3003 RMK A01 T02610160  RH  056%=      5-min Rain = 0
KOES 061420Z 18013G18KT 26/16 A3003 RMK A01 T02630160  RH  056%=      5-min Rain = 0
KOES 061425Z 18013G19KT 26/16 A3003 RMK A01 T02640159  RH  055%=      5-min Rain = 0
KOES 061430Z 18012G17KT 27/16 A3003 RMK A01 T02670160  RH  054%=      5-min Rain = 0
KOES 061435Z 18014KT 27/16 A3003 RMK A01 T02680159  RH  054%=      5-min Rain = 0
KOES 061440Z 18013G19KT 27/16 A3003 RMK A01 T02690160  RH  054%=      5-min Rain = 0
KOES 061445Z 18013KT 27/16 A3003 RMK A01 T02730160  RH  053%=      5-min Rain = 0
KOES 061450Z 19015G22KT 28/16 A3003 RMK A01 T02770159  RH  051%=      5-min Rain = 0
KOES 061455Z 18013G18KT 28/16 A3002 RMK A01 T02750158  RH  051%=      5-min Rain = 0
KOES 061500Z 18012G19KT 28/16 A3002 RMK A01 T02780158  RH  050%=      5-min Rain = 0
KOES 061505Z 19014G21KT 28/16 A3003 RMK A01 T02800156  RH  049%=      5-min Rain = 0
KOES 061510Z 18014KT 28/16 A3003 RMK A01 T02790155  RH  049%=      5-min Rain = 0
KOES 061515Z 19013G19KT 28/15 A3003 RMK A01 T02820154  RH  048%=      5-min Rain = 0
KOES 061520Z 19015KT 28/15 A3003 RMK A01 T02830153  RH  047%=      5-min Rain = 0
KOES 061525Z 19012G17KT 28/16 A3003 RMK A01 T02840155  RH  048%=      5-min Rain = 0
KOES 061530Z 19013G20KT 29/15 A3003 RMK A01 T02850153  RH  047%=      5-min Rain = 0
KOES 061535Z 18011G16KT 29/16 A3003 RMK A01 T02900156  RH  046%=      5-min Rain = 0
KOES 061540Z 18013G18KT 29/15 A3003 RMK A01 T02910154  RH  045%=      5-min Rain = 0
KOES 061545Z 18013G19KT 29/15 A3003 RMK A01 T02930153  RH  045%=      5-min Rain = 0
KOES 061550Z 18014G19KT 29/15 A3003 RMK A01 T02940152  RH  044%=      5-min Rain = 0
KOES 061555Z 18014G20KT 29/15 A3003 RMK A01 T02930150  RH  044%=      5-min Rain = 0
KOES 061600Z 19015G20KT 29/15 A3003 RMK A01 T02940152  RH  044%=      5-min Rain = 0
KOES 061605Z 18014G20KT 30/15 A3003 RMK A01 T02970151  RH  043%=      5-min Rain = 0
KOES 061610Z 18014G20KT 30/15 A3003 RMK A01 T02970151  RH  043%=      5-min Rain = 0
KOES 061615Z 18013G20KT 30/15 A3004 RMK A01 T03010150  RH  042%=      5-min Rain = 0
KOES 061620Z 18013G18KT 31/15 A3004 RMK A01 T03050151  RH  041%=      5-min Rain = 0
KOES 061625Z 18014G19KT 31/15 A3004 RMK A01 T03050150  RH  041%=      5-min Rain = 0
KOES 061630Z 18013G19KT 31/15 A3004 RMK A01 T03060148  RH  040%=      5-min Rain = 0
KOES 061635Z 19013G18KT 31/14 A3004 RMK A01 T03080144  RH  039%=      5-min Rain = 0
KOES 061640Z 19013G20KT 31/15 A3004 RMK A01 T03120145  RH  038%=      5-min Rain = 0
KOES 061645Z 19013KT 31/14 A3003 RMK A01 T03130143  RH  037%=      5-min Rain = 0
KOES 061650Z 19015G20KT 31/14 A3003 RMK A01 T03140140  RH  036%=      5-min Rain = 0
KOES 061655Z 19014KT 32/14 A3003 RMK A01 T03150141  RH  036%=      5-min Rain = 0
KOES 061700Z 18015G22KT 32/14 A3003 RMK A01 T03180140  RH  035%=      5-min Rain = 0
KOES 061705Z 18014G19KT 32/14 A3003 RMK A01 T03190138  RH  035%=      5-min Rain = 0
KOES 061710Z 18014G20KT 32/14 A3003 RMK A01 T03230140  RH  034%=      5-min Rain = 0
KOES 061715Z 18013G19KT 32/14 A3003 RMK A01 T03240137  RH  034%=      5-min Rain = 0
KOES 061720Z 20014G19KT 33/14 A3003 RMK A01 T03270136  RH  033%=      5-min Rain = 0
KOES 061725Z 18012G17KT 33/14 A3003 RMK A01 T03310139  RH  033%=      5-min Rain = 0
KOES 061730Z 20014G20KT 33/13 A3003 RMK A01 T03340132  RH  031%=      5-min Rain = 0
KOES 061735Z 17011G18KT 34/13 A3003 RMK A01 T03350134  RH  031%=      5-min Rain = 0
KOES 061740Z 18013G18KT 33/13 A3003 RMK A01 T03340130  RH  030%=      5-min Rain = 0
KOES 061745Z 19013G19KT 34/13 A3003 RMK A01 T03360129  RH  030%=      5-min Rain = 0
KOES 061750Z 18013G23KT 34/13 A3003 RMK A01 T03360125  RH  029%=      5-min Rain = 0
KOES 061755Z 18014G19KT 34/13 A3002 RMK A01 T03390126  RH  029%=      5-min Rain = 0
KOES 061800Z 19014KT 34/13 A3002 RMK A01 T03390126  RH  029%=      5-min Rain = 0
KOES 061805Z 18014G19KT 34/13 A3002 RMK A01 T03370128  RH  029%=      5-min Rain = 0
KOES 061810Z 19012G18KT 34/13 A3002 RMK A01 T03420133  RH  029%=      5-min Rain = 0
KOES 061815Z 17012G18KT 34/13 A3002 RMK A01 T03430133  RH  029%=      5-min Rain = 0
KOES 061820Z 17012G19KT 35/13 A3002 RMK A01 T03480130  RH  028%=      5-min Rain = 0
KOES 061825Z 19013G18KT 35/13 A3002 RMK A01 T03470125  RH  027%=      5-min Rain = 0
KOES 061830Z 18012KT 35/12 A3002 RMK A01 T03480124  RH  027%=      5-min Rain = 0
KOES 061835Z 18012G18KT 35/12 A3002 RMK A01 T03500124  RH  027%=      5-min Rain = 0
KOES 061840Z 17012G18KT 35/12 A3001 RMK A01 T03510119  RH  026%=      5-min Rain = 0
KOES 061845Z 19012KT 35/13 A3001 RMK A01 T03530127  RH  027%=      5-min Rain = 0
KOES 061850Z 19014KT 35/12 A3001 RMK A01 T03540117  RH  025%=      5-min Rain = 0
KOES 061855Z 18013G18KT 36/12 A3001 RMK A01 T03570121  RH  025%=      5-min Rain = 0
KOES 061900Z 19014G20KT 36/12 A30 RMK A01 T03560117  RH  025%=      5-min Rain = 0
KOES 061905Z 18014KT 36/12 A30 RMK A01 T03560121  RH  025%=      5-min Rain = 0
KOES 061910Z 18014G20KT 36/12 A30 RMK A01 T03570119  RH  025%=      5-min Rain = 0
KOES 061915Z 18013G20KT 36/12 A30 RMK A01 T03560119  RH  025%=      5-min Rain = 0
KOES 061920Z 18012G19KT 36/12 A2999 RMK A01 T03610117  RH  024%=      5-min Rain = 0
KOES 061925Z 17012G19KT 37/11 A2999 RMK A01 T03670110  RH  022%=      5-min Rain = 0
KOES 061930Z 18012G20KT 37/11 A2999 RMK A01 T03690111  RH  022%=      5-min Rain = 0
KOES 061935Z 18012KT 37/11 A2999 RMK A01 T03670113  RH  023%=      5-min Rain = 0
KOES 061940Z 19014G22KT 37/11 A2999 RMK A01 T03690112  RH  022%=      5-min Rain = 0
KOES 061945Z 17016G24KT 37/10 A2998 RMK A01 T03680104  RH  021%=      5-min Rain = 0
KOES 061950Z 16012G20KT 36/11 A2998 RMK A01 T03640108  RH  022%=      5-min Rain = 0
KOES 061955Z 18013G20KT 37/11 A2998 RMK A01 T03680107  RH  021%=      5-min Rain = 0
KOES 062000Z 18013G18KT 37/11 A2998 RMK A01 T03690107  RH  021%=      5-min Rain = 0
KOES 062005Z 16013G20KT 37/10 A2998 RMK A01 T03690103  RH  021%=      5-min Rain = 0
KOES 062010Z 16014G20KT 37/10 A2998 RMK A01 T03670102  RH  021%=      5-min Rain = 0
KOES 062015Z 18015G22KT 37/11 A2998 RMK A01 T03690105  RH  021%=      5-min Rain = 0
KOES 062020Z 18013G19KT 37/10 A2998 RMK A01 T03710104  RH  021%=      5-min Rain = 0
KOES 062025Z 17011G18KT 37/11 A2997 RMK A01 T03720105  RH  021%=      5-min Rain = 0
KOES 062030Z 17013G18KT 37/11 A2997 RMK A01 T03730108  RH  021%=      5-min Rain = 0
KOES 062035Z 19013G22KT 37/11 A2997 RMK A01 T03740105  RH  020%=      5-min Rain = 0
KOES 062040Z 19015G20KT 37/10 A2997 RMK A01 T03730103  RH  020%=      5-min Rain = 0
KOES 062045Z 18012G20KT 37/10 A2997 RMK A01 T03740102  RH  020%=      5-min Rain = 0
KOES 062050Z 17013G19KT 38/10 A2997 RMK A01 T03750103  RH  020%=      5-min Rain = 0
KOES 062055Z 18013G20KT 38/10 A2997 RMK A01 T03780101  RH  019%=      5-min Rain = 0
KOES 062100Z 18011KT 38/10 A2996 RMK A01 T03760097  RH  019%=      5-min Rain = 0
KOES 062105Z 18014G21KT 38/10 A2996 RMK A01 T03770101  RH  020%=      5-min Rain = 0
KOES 062110Z 19014G22KT 38/10 A2996 RMK A01 T03780102  RH  020%=      5-min Rain = 0
KOES 062115Z 18016G23KT 38/10 A2996 RMK A01 T03760102  RH  020%=      5-min Rain = 0
KOES 062120Z 19013G20KT 38/10 A2996 RMK A01 T03750102  RH  020%=      5-min Rain = 0
KOES 062125Z 19014G21KT 37/10 A2995 RMK A01 T03740101  RH  020%=      5-min Rain = 0
KOES 062130Z 16009G18KT 38/11 A2995 RMK A01 T03770109  RH  021%=      5-min Rain = 0
KOES 062135Z 17011G17KT 38/11 A2995 RMK A01 T03790112  RH  021%=      5-min Rain = 0
KOES 062140Z 18012G22KT 38/11 A2995 RMK A01 T03770110  RH  021%=      5-min Rain = 0
KOES 062145Z 17012G19KT 38/12 A2995 RMK A01 T03760116  RH  022%=      5-min Rain = 0
KOES 062150Z 17011G17KT 38/11 A2995 RMK A01 T03780114  RH  021%=      5-min Rain = 0
KOES 062155Z 18012KT 38/11 A2994 RMK A01 T03780112  RH  021%=      5-min Rain = 0
KOES 062200Z 16011G19KT 38/12 A2994 RMK A01 T03780116  RH  021%=      5-min Rain = 0
KOES 062205Z 18012G17KT 38/11 A2994 RMK A01 T03760114  RH  022%=      5-min Rain = 0
KOES 062210Z 17013G18KT 38/12 A2994 RMK A01 T03750117  RH  022%=      5-min Rain = 0
KOES 062215Z 16013G21KT 37/12 A2994 RMK A01 T03730116  RH  022%=      5-min Rain = 0
KOES 062220Z 15011KT 37/11 A2994 RMK A01 T03740114  RH  022%=      5-min Rain = 0
KOES 062225Z 17011G18KT 37/12 A2994 RMK A01 T03720115  RH  022%=      5-min Rain = 0
KOES 062230Z 18012G18KT 37/12 A2994 RMK A01 T03710117  RH  022%=      5-min Rain = 0
KOES 062235Z 17012G20KT 37/12 A2994 RMK A01 T03730120  RH  023%=      5-min Rain = 0
KOES 062240Z 17012G18KT 37/12 A2994 RMK A01 T03700118  RH  023%=      5-min Rain = 0
KOES 062245Z 16011KT 36/12 A2994 RMK A01 T03630116  RH  023%=      5-min Rain = 0
KOES 062250Z 16012G17KT 36/11 A2994 RMK A01 T03620113  RH  023%=      5-min Rain = 0
KOES 062255Z 16011G16KT 37/12 A2994 RMK A01 T03660117  RH  023%=      5-min Rain = 0
KOES 062300Z 15011G16KT 36/12 A2994 RMK A01 T03590115  RH  024%=      5-min Rain = 0
KOES 062305Z 16010G15KT 36/12 A2994 RMK A01 T03570116  RH  024%=      5-min Rain = 0
KOES 062310Z 16009G17KT 36/12 A2994 RMK A01 T03550117  RH  025%=      5-min Rain = 0
KOES 062315Z 16011G16KT 35/12 A2994 RMK A01 T03540116  RH  025%=      5-min Rain = 0
KOES 062320Z 16010G17KT 35/12 A2994 RMK A01 T03530117  RH  025%=      5-min Rain = 0
KOES 062325Z 16009KT 35/12 A2994 RMK A01 T03530117  RH  025%=      5-min Rain = 0
KOES 062330Z 16009KT 35/12 A2994 RMK A01 T03530118  RH  025%=      5-min Rain = 0
KOES 062335Z 15011KT 35/12 A2993 RMK A01 T03520118  RH  025%=      5-min Rain = 0
KOES 062340Z 15010KT 35/12 A2993 RMK A01 T03510119  RH  026%=      5-min Rain = 0
KOES 062345Z 16010KT 35/12 A2993 RMK A01 T03510119  RH  026%=      5-min Rain = 0
KOES 062350Z 16009KT 35/12 A2993 RMK A01 T03500118  RH  026%=      5-min Rain = 0
KOES 062355Z 16009G15KT 35/12 A2993 RMK A01 T03490117  RH  025%=      5-min Rain = 0
KOES 070000Z 16009G14KT 35/12 A2993 RMK A01 T03490116  RH  025%=      5-min Rain = 0
KOES 070005Z 16009G14KT 35/12 A2992 RMK A01 T03480116  RH  025%=      5-min Rain = 0
KOES 070010Z 16009KT 35/12 A2992 RMK A01 T03470115  RH  025%=      5-min Rain = 0
KOES 070015Z 15009KT 35/12 A2992 RMK A01 T03460116  RH  026%=      5-min Rain = 0
KOES 070020Z 16009KT 35/12 A2993 RMK A01 T03450115  RH  026%=      5-min Rain = 0
KOES 070025Z 16010KT 35/11 A2993 RMK A01 T03450113  RH  025%=      5-min Rain = 0
KOES 070030Z 16009G14KT 34/11 A2993 RMK A01 T03440112  RH  025%=      5-min Rain = 0
KOES 070035Z 16010KT 34/11 A2993 RMK A01 T03440111  RH  025%=      5-min Rain = 0
KOES 070040Z 17009KT 35/11 A2994 RMK A01 T03450111  RH  025%=      5-min Rain = 0
KOES 070045Z 17009KT 34/11 A2995 RMK A01 T03440111  RH  025%=      5-min Rain = 0
KOES 070050Z 17010KT 34/11 A2995 RMK A01 T03430113  RH  026%=      5-min Rain = 0
KOES 070055Z 17010G15KT 34/11 A2995 RMK A01 T03420113  RH  026%=      5-min Rain = 0
KOES 070100Z 18010G15KT 34/11 A2996 RMK A01 T03420113  RH  026%=      5-min Rain = 0
KOES 070105Z 17010KT 34/11 A2996 RMK A01 T03410112  RH  026%=      5-min Rain = 0
KOES 070110Z 17009KT 34/11 A2996 RMK A01 T03400112  RH  026%=      5-min Rain = 0
KOES 070115Z 17008KT 34/11 A2996 RMK A01 T03390112  RH  026%=      5-min Rain = 0
KOES 070120Z 18007KT 34/11 A2997 RMK A01 T03380113  RH  026%=      5-min Rain = 0
KOES 070125Z 18008G13KT 34/11 A2997 RMK A01 T03360113  RH  027%=      5-min Rain = 0
KOES 070130Z 18009KT 34/12 A2997 RMK A01 T03350115  RH  027%=      5-min Rain = 0
KOES 070135Z 20009KT 33/12 A2998 RMK A01 T03330121  RH  029%=      5-min Rain = 0
KOES 070140Z 26014G23KT 32/13 A30 RMK A01 T03230132  RH  033%=      5-min Rain = 0
KOES 070145Z 26016G21KT 30/14 A30 RMK A01 T02990141  RH  040%=      5-min Rain = 0
KOES 070150Z 28021G30KT 29/15 A30 RMK A01 T02850152  RH  047%=      5-min Rain = 0
KOES 070155Z 28019G36KT 27/16 A3001 RMK A01 T02730159  RH  053%=      5-min Rain = 0
KOES 070200Z 28020G29KT 26/17 A3001 RMK A01 T02580167  RH  060%=      5-min Rain = 0
KOES 070205Z 27018G23KT 26/17 A3002 RMK A01 T02560165  RH  060%=      5-min Rain = 0
KOES 070210Z 28017G22KT 26/17 A3002 RMK A01 T02570165  RH  060%=      5-min Rain = 0
KOES 070215Z 28017G23KT 26/17 A3003 RMK A01 T02560166  RH  060%=      5-min Rain = 0
KOES 070220Z 28014G20KT 26/17 A3003 RMK A01 T02550166  RH  061%=      5-min Rain = 0
KOES 070225Z 28007G12KT 25/17 A3004 RMK A01 T02500174  RH  066%=      5-min Rain = 0
KOES 070230Z 34006KT 25/17 A3003 RMK A01 T02460174  RH  067%=      5-min Rain = 0
KOES 070235Z 34006KT 25/17 A3003 RMK A01 T02480171  RH  066%=      5-min Rain = 0
KOES 070240Z 32005KT 25/17 A3003 RMK A01 T02480174  RH  067%=      5-min Rain = 0
KOES 070245Z 30007KT 25/17 A3003 RMK A01 T02490171  RH  065%=      5-min Rain = 0
KOES 070250Z 30006KT 25/17 A3002 RMK A01 T02510169  RH  063%=      5-min Rain = 0
KOES 070255Z 28006KT 26/16 A3002 RMK A01 T02600160  RH  057%=      5-min Rain = 0
KOES 070300Z 27006KT 26/16 A3002 RMK A01 T02620163  RH  057%=      5-min Rain = 0
KOES 070305Z 23005KT 26/17 A3002 RMK A01 T02560168  RH  061%=      5-min Rain = 0
KOES 070310Z 22008KT 26/17 A3002 RMK A01 T02550169  RH  062%=      5-min Rain = 0
KOES 070315Z 23008KT 26/16 A3002 RMK A01 T02590163  RH  058%=      5-min Rain = 0
KOES 070320Z 21005KT 26/16 A3001 RMK A01 T02580164  RH  059%=      5-min Rain = 0
KOES 070325Z 18004KT 26/17 A30 RMK A01 T02590166  RH  060%=      5-min Rain = 0
KOES 070330Z 19005KT 26/17 A30 RMK A01 T02630165  RH  058%=      5-min Rain = 0
KOES 070335Z 19005KT 27/16 A30 RMK A01 T02670161  RH  055%=      5-min Rain = 0
KOES 070340Z 17005KT 27/16 A30 RMK A01 T02700160  RH  053%=      5-min Rain = 0
KOES 070345Z 16007KT 28/15 A30 RMK A01 T02750154  RH  050%=      5-min Rain = 0
KOES 070350Z 17007KT 28/15 A2999 RMK A01 T02780152  RH  048%=      5-min Rain = 0
KOES 070355Z 17007KT 28/15 A2999 RMK A01 T02790151  RH  048%=      5-min Rain = 0
KOES 070400Z 17007KT 28/15 A2999 RMK A01 T02810149  RH  047%=      5-min Rain = 0
KOES 070405Z 15007KT 28/16 A2999 RMK A01 T02800155  RH  049%=      5-min Rain = 0
KOES 070410Z 15007KT 28/16 A2999 RMK A01 T02750156  RH  051%=      5-min Rain = 0.01
KOES 070415Z 16007KT 28/16 A2999 RMK A01 T02750155  RH  050%=      5-min Rain = 0
KOES 070420Z 16007KT 28/15 A2999 RMK A01 T02770153  RH  049%=      5-min Rain = 0
KOES 070425Z 16007KT 28/15 A30 RMK A01 T02770151  RH  048%=      5-min Rain = 0
KOES 070430Z 16007KT 28/15 A2999 RMK A01 T02750153  RH  049%=      5-min Rain = 0
KOES 070435Z 16007KT 27/15 A2999 RMK A01 T02730154  RH  051%=      5-min Rain = 0
KOES 070440Z 15008KT 27/16 A2999 RMK A01 T02720155  RH  051%=      5-min Rain = 0
KOES 070445Z 16008G13KT 27/16 A2999 RMK A01 T02720156  RH  052%=      5-min Rain = 0
KOES 070450Z 16008KT 27/16 A2999 RMK A01 T02710157  RH  052%=      5-min Rain = 0
KOES 070455Z 16009G14KT 27/16 A2999 RMK A01 T02710158  RH  052%=      5-min Rain = 0

Page generated in 0.0093 seconds.